sensor_id;sensor_type;location;lat;lon;timestamp;P1;durP1;ratioP1;P2;durP2;ratioP2
15958;SDS011;8078;47.822;9.402;2022-08-18T00:01:14;595.13;;;38.65;;
15958;SDS011;8078;47.822;9.402;2022-08-18T00:03:41;456.63;;;32.92;;
15958;SDS011;8078;47.822;9.402;2022-08-18T00:06:10;639.80;;;41.53;;
15958;SDS011;8078;47.822;9.402;2022-08-18T00:08:35;706.72;;;46.55;;
15958;SDS011;8078;47.822;9.402;2022-08-18T00:11:01;848.65;;;54.35;;
15958;SDS011;8078;47.822;9.402;2022-08-18T00:13:27;979.47;;;62.28;;
15958;SDS011;8078;47.822;9.402;2022-08-18T00:15:52;834.00;;;58.10;;
15958;SDS011;8078;47.822;9.402;2022-08-18T00:18:18;809.88;;;51.97;;
15958;SDS011;8078;47.822;9.402;2022-08-18T00:20:44;964.20;;;61.88;;
15958;SDS011;8078;47.822;9.402;2022-08-18T00:23:10;724.40;;;52.92;;
15958;SDS011;8078;47.822;9.402;2022-08-18T00:25:35;691.42;;;46.55;;
15958;SDS011;8078;47.822;9.402;2022-08-18T00:28:01;832.95;;;48.22;;
15958;SDS011;8078;47.822;9.402;2022-08-18T00:30:28;422.48;;;32.10;;
15958;SDS011;8078;47.822;9.402;2022-08-18T00:32:55;253.30;;;23.75;;
15958;SDS011;8078;47.822;9.402;2022-08-18T00:35:24;394.42;;;26.23;;
15958;SDS011;8078;47.822;9.402;2022-08-18T00:37:52;662.60;;;35.03;;
15958;SDS011;8078;47.822;9.402;2022-08-18T00:40:21;292.90;;;22.65;;
15958;SDS011;8078;47.822;9.402;2022-08-18T00:42:53;546.38;;;35.00;;
15958;SDS011;8078;47.822;9.402;2022-08-18T00:45:25;792.17;;;42.42;;
15958;SDS011;8078;47.822;9.402;2022-08-18T00:47:53;507.08;;;32.83;;
15958;SDS011;8078;47.822;9.402;2022-08-18T00:50:20;671.08;;;40.25;;
15958;SDS011;8078;47.822;9.402;2022-08-18T00:53:01;918.15;;;55.08;;
15958;SDS011;8078;47.822;9.402;2022-08-18T00:55:30;889.63;;;57.92;;
15958;SDS011;8078;47.822;9.402;2022-08-18T00:57:59;730.47;;;46.10;;
15958;SDS011;8078;47.822;9.402;2022-08-18T01:00:30;412.52;;;29.35;;
15958;SDS011;8078;47.822;9.402;2022-08-18T01:02:57;209.52;;;20.60;;
15958;SDS011;8078;47.822;9.402;2022-08-18T01:05:34;254.70;;;22.30;;
15958;SDS011;8078;47.822;9.402;2022-08-18T01:08:05;424.75;;;28.63;;
15958;SDS011;8078;47.822;9.402;2022-08-18T01:10:35;100.28;;;17.17;;
15958;SDS011;8078;47.822;9.402;2022-08-18T01:13:02;114.10;;;19.50;;
15958;SDS011;8078;47.822;9.402;2022-08-18T01:15:28;189.18;;;22.85;;
15958;SDS011;8078;47.822;9.402;2022-08-18T01:17:54;392.90;;;27.83;;
15958;SDS011;8078;47.822;9.402;2022-08-18T01:20:42;859.58;;;58.22;;
15958;SDS011;8078;47.822;9.402;2022-08-18T01:23:52;977.53;;;58.10;;
15958;SDS011;8078;47.822;9.402;2022-08-18T01:26:18;768.97;;;48.25;;
15958;SDS011;8078;47.822;9.402;2022-08-18T01:28:46;822.65;;;46.45;;
15958;SDS011;8078;47.822;9.402;2022-08-18T01:31:28;845.65;;;47.28;;
15958;SDS011;8078;47.822;9.402;2022-08-18T01:34:03;693.40;;;39.67;;
15958;SDS011;8078;47.822;9.402;2022-08-18T01:36:34;322.27;;;26.33;;
15958;SDS011;8078;47.822;9.402;2022-08-18T01:39:05;550.42;;;39.13;;
15958;SDS011;8078;47.822;9.402;2022-08-18T01:41:33;514.22;;;39.30;;
15958;SDS011;8078;47.822;9.402;2022-08-18T01:43:59;892.58;;;55.60;;
15958;SDS011;8078;47.822;9.402;2022-08-18T01:46:29;639.60;;;44.00;;
15958;SDS011;8078;47.822;9.402;2022-08-18T01:48:57;733.75;;;50.03;;
15958;SDS011;8078;47.822;9.402;2022-08-18T01:51:25;1134.18;;;74.60;;
15958;SDS011;8078;47.822;9.402;2022-08-18T01:53:52;817.05;;;52.10;;
15958;SDS011;8078;47.822;9.402;2022-08-18T01:56:18;714.10;;;49.80;;
15958;SDS011;8078;47.822;9.402;2022-08-18T01:58:44;452.95;;;36.08;;
15958;SDS011;8078;47.822;9.402;2022-08-18T02:01:12;400.75;;;32.13;;
15958;SDS011;8078;47.822;9.402;2022-08-18T02:03:39;740.17;;;48.63;;
15958;SDS011;8078;47.822;9.402;2022-08-18T02:06:08;623.30;;;46.75;;
15958;SDS011;8078;47.822;9.402;2022-08-18T02:08:36;731.25;;;51.13;;
15958;SDS011;8078;47.822;9.402;2022-08-18T02:11:02;593.47;;;41.92;;
15958;SDS011;8078;47.822;9.402;2022-08-18T02:13:29;744.80;;;50.28;;
15958;SDS011;8078;47.822;9.402;2022-08-18T02:15:54;487.13;;;37.25;;
15958;SDS011;8078;47.822;9.402;2022-08-18T02:18:22;701.83;;;48.47;;
15958;SDS011;8078;47.822;9.402;2022-08-18T02:20:53;813.80;;;60.70;;
15958;SDS011;8078;47.822;9.402;2022-08-18T02:23:20;748.10;;;54.20;;
15958;SDS011;8078;47.822;9.402;2022-08-18T02:25:46;488.23;;;38.70;;
15958;SDS011;8078;47.822;9.402;2022-08-18T02:28:12;756.35;;;52.03;;
15958;SDS011;8078;47.822;9.402;2022-08-18T02:30:37;612.55;;;43.92;;
15958;SDS011;8078;47.822;9.402;2022-08-18T02:33:04;518.35;;;40.95;;
15958;SDS011;8078;47.822;9.402;2022-08-18T02:35:31;667.13;;;53.65;;
15958;SDS011;8078;47.822;9.402;2022-08-18T02:38:01;763.58;;;53.00;;
15958;SDS011;8078;47.822;9.402;2022-08-18T02:40:28;471.25;;;37.33;;
15958;SDS011;8078;47.822;9.402;2022-08-18T02:42:54;469.38;;;37.10;;
15958;SDS011;8078;47.822;9.402;2022-08-18T02:45:20;307.15;;;29.52;;
15958;SDS011;8078;47.822;9.402;2022-08-18T02:47:51;26.55;;;16.50;;
15958;SDS011;8078;47.822;9.402;2022-08-18T02:50:17;23.63;;;15.40;;
15958;SDS011;8078;47.822;9.402;2022-08-18T02:52:43;20.25;;;14.80;;
15958;SDS011;8078;47.822;9.402;2022-08-18T02:55:09;21.75;;;13.90;;
15958;SDS011;8078;47.822;9.402;2022-08-18T02:57:35;16.90;;;12.60;;
15958;SDS011;8078;47.822;9.402;2022-08-18T03:00:01;15.45;;;11.55;;
15958;SDS011;8078;47.822;9.402;2022-08-18T03:02:26;15.73;;;10.93;;
15958;SDS011;8078;47.822;9.402;2022-08-18T03:04:52;14.73;;;11.15;;
15958;SDS011;8078;47.822;9.402;2022-08-18T03:07:18;13.60;;;10.30;;
15958;SDS011;8078;47.822;9.402;2022-08-18T03:09:43;13.43;;;9.43;;
15958;SDS011;8078;47.822;9.402;2022-08-18T03:12:09;12.13;;;8.88;;
15958;SDS011;8078;47.822;9.402;2022-08-18T03:14:35;11.40;;;9.45;;
15958;SDS011;8078;47.822;9.402;2022-08-18T03:17:04;12.27;;;8.88;;
15958;SDS011;8078;47.822;9.402;2022-08-18T03:19:30;13.38;;;11.77;;
15958;SDS011;8078;47.822;9.402;2022-08-18T03:21:57;17.10;;;12.27;;
15958;SDS011;8078;47.822;9.402;2022-08-18T03:24:23;11.45;;;10.18;;
15958;SDS011;8078;47.822;9.402;2022-08-18T03:26:50;11.10;;;9.35;;
15958;SDS011;8078;47.822;9.402;2022-08-18T03:29:16;10.98;;;9.15;;
15958;SDS011;8078;47.822;9.402;2022-08-18T03:31:43;9.00;;;8.10;;
15958;SDS011;8078;47.822;9.402;2022-08-18T03:34:09;13.30;;;9.40;;
15958;SDS011;8078;47.822;9.402;2022-08-18T03:36:35;10.05;;;8.77;;
15958;SDS011;8078;47.822;9.402;2022-08-18T03:39:06;11.88;;;10.45;;
15958;SDS011;8078;47.822;9.402;2022-08-18T03:41:35;9.13;;;7.25;;
15958;SDS011;8078;47.822;9.402;2022-08-18T03:44:03;7.72;;;6.35;;
15958;SDS011;8078;47.822;9.402;2022-08-18T03:46:29;8.30;;;6.20;;
15958;SDS011;8078;47.822;9.402;2022-08-18T03:48:55;7.22;;;6.00;;
15958;SDS011;8078;47.822;9.402;2022-08-18T03:51:23;8.32;;;6.53;;
15958;SDS011;8078;47.822;9.402;2022-08-18T03:53:51;8.25;;;6.63;;
15958;SDS011;8078;47.822;9.402;2022-08-18T03:56:20;9.20;;;7.43;;
15958;SDS011;8078;47.822;9.402;2022-08-18T03:58:48;8.98;;;6.50;;
15958;SDS011;8078;47.822;9.402;2022-08-18T04:01:17;7.75;;;6.20;;
15958;SDS011;8078;47.822;9.402;2022-08-18T04:03:45;8.95;;;6.90;;
15958;SDS011;8078;47.822;9.402;2022-08-18T04:06:19;10.50;;;6.45;;
15958;SDS011;8078;47.822;9.402;2022-08-18T04:08:46;8.00;;;6.50;;
15958;SDS011;8078;47.822;9.402;2022-08-18T04:11:15;10.48;;;6.93;;
15958;SDS011;8078;47.822;9.402;2022-08-18T04:13:41;9.80;;;7.60;;
15958;SDS011;8078;47.822;9.402;2022-08-18T04:16:07;11.15;;;8.35;;
15958;SDS011;8078;47.822;9.402;2022-08-18T04:18:32;9.70;;;7.75;;
15958;SDS011;8078;47.822;9.402;2022-08-18T04:21:02;12.18;;;8.90;;
15958;SDS011;8078;47.822;9.402;2022-08-18T04:23:32;14.95;;;9.73;;
15958;SDS011;8078;47.822;9.402;2022-08-18T04:26:01;14.00;;;10.23;;
15958;SDS011;8078;47.822;9.402;2022-08-18T04:28:28;13.60;;;10.77;;
15958;SDS011;8078;47.822;9.402;2022-08-18T04:30:55;20.95;;;12.63;;
15958;SDS011;8078;47.822;9.402;2022-08-18T04:33:23;18.10;;;12.40;;
15958;SDS011;8078;47.822;9.402;2022-08-18T04:35:50;18.17;;;12.55;;
15958;SDS011;8078;47.822;9.402;2022-08-18T04:38:17;18.02;;;13.63;;
15958;SDS011;8078;47.822;9.402;2022-08-18T04:40:42;15.57;;;12.30;;
15958;SDS011;8078;47.822;9.402;2022-08-18T04:43:08;17.35;;;13.52;;
15958;SDS011;8078;47.822;9.402;2022-08-18T04:45:45;14.73;;;12.10;;
15958;SDS011;8078;47.822;9.402;2022-08-18T04:48:12;14.32;;;11.90;;
15958;SDS011;8078;47.822;9.402;2022-08-18T04:50:39;15.90;;;11.65;;
15958;SDS011;8078;47.822;9.402;2022-08-18T04:53:06;13.52;;;10.20;;
15958;SDS011;8078;47.822;9.402;2022-08-18T04:55:51;13.77;;;8.93;;
15958;SDS011;8078;47.822;9.402;2022-08-18T04:58:19;16.00;;;9.98;;
15958;SDS011;8078;47.822;9.402;2022-08-18T05:00:45;11.43;;;8.60;;
15958;SDS011;8078;47.822;9.402;2022-08-18T05:03:19;9.40;;;7.85;;
15958;SDS011;8078;47.822;9.402;2022-08-18T05:05:45;10.18;;;8.20;;
15958;SDS011;8078;47.822;9.402;2022-08-18T05:08:11;8.18;;;6.93;;
15958;SDS011;8078;47.822;9.402;2022-08-18T05:10:36;8.25;;;7.30;;
15958;SDS011;8078;47.822;9.402;2022-08-18T05:13:04;10.13;;;7.03;;
15958;SDS011;8078;47.822;9.402;2022-08-18T05:15:30;8.20;;;6.90;;
15958;SDS011;8078;47.822;9.402;2022-08-18T05:17:57;8.35;;;6.05;;
15958;SDS011;8078;47.822;9.402;2022-08-18T05:20:22;8.30;;;6.47;;
15958;SDS011;8078;47.822;9.402;2022-08-18T05:22:49;7.78;;;5.72;;
15958;SDS011;8078;47.822;9.402;2022-08-18T05:25:14;9.07;;;6.07;;
15958;SDS011;8078;47.822;9.402;2022-08-18T05:27:41;8.30;;;6.40;;
15958;SDS011;8078;47.822;9.402;2022-08-18T05:30:08;7.50;;;6.18;;
15958;SDS011;8078;47.822;9.402;2022-08-18T05:32:39;8.93;;;6.22;;
15958;SDS011;8078;47.822;9.402;2022-08-18T05:35:10;7.47;;;6.70;;
15958;SDS011;8078;47.822;9.402;2022-08-18T05:40:14;10.55;;;8.05;;
15958;SDS011;8078;47.822;9.402;2022-08-18T05:42:40;9.48;;;8.35;;
15958;SDS011;8078;47.822;9.402;2022-08-18T05:45:12;13.43;;;9.60;;
15958;SDS011;8078;47.822;9.402;2022-08-18T05:47:40;64.78;;;11.55;;
15958;SDS011;8078;47.822;9.402;2022-08-18T05:50:13;254.80;;;18.60;;
15958;SDS011;8078;47.822;9.402;2022-08-18T05:55:30;116.93;;;14.35;;
15958;SDS011;8078;47.822;9.402;2022-08-18T05:58:17;13.82;;;10.68;;
15958;SDS011;8078;47.822;9.402;2022-08-18T06:00:54;12.23;;;10.07;;
15958;SDS011;8078;47.822;9.402;2022-08-18T06:03:23;13.07;;;8.95;;
15958;SDS011;8078;47.822;9.402;2022-08-18T06:05:55;11.60;;;9.45;;
15958;SDS011;8078;47.822;9.402;2022-08-18T06:08:30;12.52;;;9.60;;
15958;SDS011;8078;47.822;9.402;2022-08-18T06:11:01;12.50;;;10.57;;
15958;SDS011;8078;47.822;9.402;2022-08-18T06:13:27;13.82;;;9.98;;
15958;SDS011;8078;47.822;9.402;2022-08-18T06:15:58;12.43;;;10.50;;
15958;SDS011;8078;47.822;9.402;2022-08-18T06:35:28;9.10;;;8.02;;
15958;SDS011;8078;47.822;9.402;2022-08-18T06:38:08;10.98;;;8.15;;
15958;SDS011;8078;47.822;9.402;2022-08-18T06:44:03;9.35;;;7.72;;
15958;SDS011;8078;47.822;9.402;2022-08-18T06:46:49;11.27;;;7.80;;
15958;SDS011;8078;47.822;9.402;2022-08-18T06:52:19;8.95;;;7.63;;
15958;SDS011;8078;47.822;9.402;2022-08-18T06:54:58;11.07;;;7.90;;
15958;SDS011;8078;47.822;9.402;2022-08-18T07:00:22;10.02;;;7.80;;
15958;SDS011;8078;47.822;9.402;2022-08-18T07:05:29;9.10;;;6.25;;
15958;SDS011;8078;47.822;9.402;2022-08-18T07:08:09;10.32;;;6.45;;
15958;SDS011;8078;47.822;9.402;2022-08-18T07:10:42;6.30;;;5.47;;
15958;SDS011;8078;47.822;9.402;2022-08-18T07:13:17;7.65;;;5.45;;
15958;SDS011;8078;47.822;9.402;2022-08-18T07:15:46;6.70;;;5.10;;
15958;SDS011;8078;47.822;9.402;2022-08-18T07:18:13;5.72;;;5.07;;
15958;SDS011;8078;47.822;9.402;2022-08-18T07:20:45;8.85;;;4.90;;
15958;SDS011;8078;47.822;9.402;2022-08-18T07:23:35;7.90;;;4.90;;
15958;SDS011;8078;47.822;9.402;2022-08-18T07:26:05;5.78;;;5.10;;
15958;SDS011;8078;47.822;9.402;2022-08-18T07:28:40;6.95;;;5.78;;
15958;SDS011;8078;47.822;9.402;2022-08-18T07:33:57;6.43;;;5.82;;
15958;SDS011;8078;47.822;9.402;2022-08-18T07:36:26;7.57;;;5.65;;
15958;SDS011;8078;47.822;9.402;2022-08-18T07:38:59;7.60;;;6.80;;
15958;SDS011;8078;47.822;9.402;2022-08-18T07:41:51;7.72;;;6.93;;
15958;SDS011;8078;47.822;9.402;2022-08-18T07:44:24;8.48;;;6.53;;
15958;SDS011;8078;47.822;9.402;2022-08-18T07:47:19;7.50;;;6.75;;
15958;SDS011;8078;47.822;9.402;2022-08-18T07:49:49;7.03;;;6.32;;
15958;SDS011;8078;47.822;9.402;2022-08-18T07:52:28;6.72;;;6.03;;
15958;SDS011;8078;47.822;9.402;2022-08-18T08:00:51;7.38;;;6.38;;
15958;SDS011;8078;47.822;9.402;2022-08-18T08:03:39;7.65;;;6.32;;
15958;SDS011;8078;47.822;9.402;2022-08-18T08:19:35;12.50;;;9.75;;
15958;SDS011;8078;47.822;9.402;2022-08-18T08:22:30;11.30;;;9.73;;
15958;SDS011;8078;47.822;9.402;2022-08-18T08:30:22;9.68;;;8.63;;
15958;SDS011;8078;47.822;9.402;2022-08-18T08:33:06;11.65;;;8.30;;
15958;SDS011;8078;47.822;9.402;2022-08-18T08:35:42;10.68;;;8.95;;
15958;SDS011;8078;47.822;9.402;2022-08-18T08:38:14;10.82;;;8.38;;
15958;SDS011;8078;47.822;9.402;2022-08-18T08:43:35;8.68;;;7.55;;
15958;SDS011;8078;47.822;9.402;2022-08-18T08:46:08;16.90;;;7.90;;
15958;SDS011;8078;47.822;9.402;2022-08-18T08:48:58;8.80;;;7.90;;
15958;SDS011;8078;47.822;9.402;2022-08-18T08:51:49;8.35;;;7.45;;
15958;SDS011;8078;47.822;9.402;2022-08-18T08:54:23;11.45;;;7.72;;
15958;SDS011;8078;47.822;9.402;2022-08-18T08:56:53;9.35;;;8.27;;
15958;SDS011;8078;47.822;9.402;2022-08-18T08:59:21;9.63;;;8.05;;
15958;SDS011;8078;47.822;9.402;2022-08-18T09:05:04;9.95;;;7.47;;
15958;SDS011;8078;47.822;9.402;2022-08-18T09:10:35;9.35;;;7.90;;
15958;SDS011;8078;47.822;9.402;2022-08-18T09:16:06;10.90;;;8.38;;
15958;SDS011;8078;47.822;9.402;2022-08-18T09:21:45;8.90;;;7.63;;
15958;SDS011;8078;47.822;9.402;2022-08-18T09:24:37;8.20;;;7.25;;
15958;SDS011;8078;47.822;9.402;2022-08-18T09:29:54;10.65;;;8.60;;
15958;SDS011;8078;47.822;9.402;2022-08-18T09:40:12;10.40;;;8.18;;
15958;SDS011;8078;47.822;9.402;2022-08-18T09:45:59;9.07;;;7.68;;
15958;SDS011;8078;47.822;9.402;2022-08-18T09:48:32;10.05;;;8.48;;
15958;SDS011;8078;47.822;9.402;2022-08-18T09:56:14;8.85;;;7.95;;
15958;SDS011;8078;47.822;9.402;2022-08-18T09:58:53;8.80;;;7.55;;
15958;SDS011;8078;47.822;9.402;2022-08-18T10:06:38;8.00;;;7.18;;
15958;SDS011;8078;47.822;9.402;2022-08-18T10:17:54;9.00;;;7.43;;
15958;SDS011;8078;47.822;9.402;2022-08-18T10:28:55;7.75;;;6.93;;
15958;SDS011;8078;47.822;9.402;2022-08-18T10:31:26;9.35;;;8.45;;
15958;SDS011;8078;47.822;9.402;2022-08-18T10:39:25;7.80;;;6.00;;
15958;SDS011;8078;47.822;9.402;2022-08-18T10:42:14;7.13;;;6.43;;
15958;SDS011;8078;47.822;9.402;2022-08-18T10:44:46;6.57;;;5.45;;
15958;SDS011;8078;47.822;9.402;2022-08-18T10:47:25;7.18;;;5.53;;
15958;SDS011;8078;47.822;9.402;2022-08-18T10:49:53;6.35;;;5.75;;
15958;SDS011;8078;47.822;9.402;2022-08-18T10:52:33;7.03;;;6.32;;
15958;SDS011;8078;47.822;9.402;2022-08-18T11:03:12;7.30;;;6.60;;
15958;SDS011;8078;47.822;9.402;2022-08-18T11:06:00;9.05;;;7.00;;
15958;SDS011;8078;47.822;9.402;2022-08-18T11:08:28;7.35;;;6.65;;
15958;SDS011;8078;47.822;9.402;2022-08-18T11:10:54;8.48;;;7.40;;
15958;SDS011;8078;47.822;9.402;2022-08-18T11:13:23;8.45;;;7.65;;
15958;SDS011;8078;47.822;9.402;2022-08-18T11:21:21;9.35;;;7.90;;
15958;SDS011;8078;47.822;9.402;2022-08-18T11:26:46;7.60;;;6.80;;
15958;SDS011;8078;47.822;9.402;2022-08-18T11:29:19;7.20;;;6.50;;
15958;SDS011;8078;47.822;9.402;2022-08-18T11:31:45;6.53;;;5.93;;
15958;SDS011;8078;47.822;9.402;2022-08-18T11:34:16;8.00;;;7.10;;
15958;SDS011;8078;47.822;9.402;2022-08-18T11:36:53;6.28;;;5.22;;
15958;SDS011;8078;47.822;9.402;2022-08-18T11:39:27;6.95;;;5.97;;
15958;SDS011;8078;47.822;9.402;2022-08-18T11:41:53;8.30;;;5.97;;
15958;SDS011;8078;47.822;9.402;2022-08-18T11:44:20;6.15;;;5.47;;
15958;SDS011;8078;47.822;9.402;2022-08-18T11:46:48;6.20;;;5.60;;
15958;SDS011;8078;47.822;9.402;2022-08-18T11:49:28;6.45;;;5.15;;
15958;SDS011;8078;47.822;9.402;2022-08-18T11:54:51;5.32;;;4.82;;
15958;SDS011;8078;47.822;9.402;2022-08-18T11:57:41;5.25;;;4.75;;
15958;SDS011;8078;47.822;9.402;2022-08-18T12:03:22;5.63;;;4.82;;
15958;SDS011;8078;47.822;9.402;2022-08-18T12:05:51;6.85;;;5.32;;
15958;SDS011;8078;47.822;9.402;2022-08-18T12:11:02;4.97;;;4.47;;
15958;SDS011;8078;47.822;9.402;2022-08-18T12:13:37;6.32;;;5.15;;
15958;SDS011;8078;47.822;9.402;2022-08-18T12:16:13;6.20;;;5.60;;
15958;SDS011;8078;47.822;9.402;2022-08-18T12:18:39;7.30;;;5.80;;
15958;SDS011;8078;47.822;9.402;2022-08-18T12:21:05;7.85;;;5.53;;
15958;SDS011;8078;47.822;9.402;2022-08-18T12:23:32;4.97;;;4.50;;
15958;SDS011;8078;47.822;9.402;2022-08-18T12:25:59;6.45;;;5.20;;
15958;SDS011;8078;47.822;9.402;2022-08-18T12:28:25;8.70;;;5.75;;
15958;SDS011;8078;47.822;9.402;2022-08-18T12:30:51;5.70;;;5.07;;
15958;SDS011;8078;47.822;9.402;2022-08-18T12:33:17;5.68;;;5.07;;
15958;SDS011;8078;47.822;9.402;2022-08-18T12:35:43;6.40;;;5.45;;
15958;SDS011;8078;47.822;9.402;2022-08-18T12:38:09;9.10;;;5.88;;
15958;SDS011;8078;47.822;9.402;2022-08-18T12:40:36;7.72;;;6.07;;
15958;SDS011;8078;47.822;9.402;2022-08-18T12:43:02;7.22;;;6.18;;
15958;SDS011;8078;47.822;9.402;2022-08-18T12:45:29;7.85;;;6.88;;
15958;SDS011;8078;47.822;9.402;2022-08-18T12:47:55;6.78;;;6.00;;
15958;SDS011;8078;47.822;9.402;2022-08-18T12:50:21;8.15;;;6.60;;
15958;SDS011;8078;47.822;9.402;2022-08-18T12:52:46;6.82;;;6.22;;
15958;SDS011;8078;47.822;9.402;2022-08-18T12:55:12;7.22;;;6.10;;
15958;SDS011;8078;47.822;9.402;2022-08-18T12:57:38;6.72;;;6.03;;
15958;SDS011;8078;47.822;9.402;2022-08-18T13:00:04;6.78;;;6.18;;
15958;SDS011;8078;47.822;9.402;2022-08-18T13:02:32;6.43;;;5.80;;
15958;SDS011;8078;47.822;9.402;2022-08-18T13:04:58;6.22;;;5.25;;
15958;SDS011;8078;47.822;9.402;2022-08-18T13:07:23;7.68;;;5.18;;
15958;SDS011;8078;47.822;9.402;2022-08-18T13:09:49;8.18;;;6.60;;
15958;SDS011;8078;47.822;9.402;2022-08-18T13:12:14;6.72;;;5.55;;
15958;SDS011;8078;47.822;9.402;2022-08-18T13:14:41;6.63;;;5.88;;
15958;SDS011;8078;47.822;9.402;2022-08-18T13:17:07;7.88;;;6.03;;
15958;SDS011;8078;47.822;9.402;2022-08-18T13:19:34;5.78;;;5.25;;
15958;SDS011;8078;47.822;9.402;2022-08-18T13:22:00;6.75;;;6.10;;
15958;SDS011;8078;47.822;9.402;2022-08-18T13:24:25;7.35;;;5.80;;
15958;SDS011;8078;47.822;9.402;2022-08-18T13:26:51;8.48;;;6.30;;
15958;SDS011;8078;47.822;9.402;2022-08-18T13:29:17;7.93;;;7.18;;
15958;SDS011;8078;47.822;9.402;2022-08-18T13:31:43;8.60;;;7.07;;
15958;SDS011;8078;47.822;9.402;2022-08-18T13:34:10;9.45;;;6.93;;
15958;SDS011;8078;47.822;9.402;2022-08-18T13:36:37;10.35;;;7.30;;
15958;SDS011;8078;47.822;9.402;2022-08-18T13:39:12;10.45;;;7.93;;
15958;SDS011;8078;47.822;9.402;2022-08-18T13:41:43;10.95;;;8.30;;
15958;SDS011;8078;47.822;9.402;2022-08-18T13:44:10;9.75;;;8.52;;
15958;SDS011;8078;47.822;9.402;2022-08-18T13:46:37;9.20;;;8.25;;
15958;SDS011;8078;47.822;9.402;2022-08-18T13:49:09;9.32;;;8.32;;
15958;SDS011;8078;47.822;9.402;2022-08-18T13:51:42;10.38;;;8.70;;
15958;SDS011;8078;47.822;9.402;2022-08-18T13:54:09;13.05;;;9.02;;
15958;SDS011;8078;47.822;9.402;2022-08-18T13:56:40;9.60;;;8.55;;
15958;SDS011;8078;47.822;9.402;2022-08-18T13:59:05;10.45;;;8.88;;
15958;SDS011;8078;47.822;9.402;2022-08-18T14:01:31;9.85;;;8.85;;
15958;SDS011;8078;47.822;9.402;2022-08-18T14:03:57;10.32;;;9.32;;
15958;SDS011;8078;47.822;9.402;2022-08-18T14:06:22;10.75;;;9.30;;
15958;SDS011;8078;47.822;9.402;2022-08-18T14:08:48;12.07;;;8.75;;
15958;SDS011;8078;47.822;9.402;2022-08-18T14:11:14;9.70;;;8.65;;
15958;SDS011;8078;47.822;9.402;2022-08-18T14:13:41;9.80;;;8.30;;
15958;SDS011;8078;47.822;9.402;2022-08-18T14:16:08;9.43;;;8.13;;
15958;SDS011;8078;47.822;9.402;2022-08-18T14:18:33;9.70;;;8.75;;
15958;SDS011;8078;47.822;9.402;2022-08-18T14:20:59;10.30;;;7.80;;
15958;SDS011;8078;47.822;9.402;2022-08-18T14:23:43;9.50;;;8.55;;
15958;SDS011;8078;47.822;9.402;2022-08-18T14:26:29;10.10;;;8.63;;
15958;SDS011;8078;47.822;9.402;2022-08-18T14:29:13;9.50;;;8.18;;
15958;SDS011;8078;47.822;9.402;2022-08-18T14:31:40;12.43;;;9.52;;
15958;SDS011;8078;47.822;9.402;2022-08-18T14:34:06;8.75;;;7.75;;
15958;SDS011;8078;47.822;9.402;2022-08-18T14:36:32;10.27;;;9.15;;
15958;SDS011;8078;47.822;9.402;2022-08-18T14:38:58;12.90;;;8.95;;
15958;SDS011;8078;47.822;9.402;2022-08-18T14:41:25;10.45;;;8.85;;
15958;SDS011;8078;47.822;9.402;2022-08-18T14:43:51;12.32;;;8.68;;
15958;SDS011;8078;47.822;9.402;2022-08-18T14:46:17;9.73;;;8.73;;
15958;SDS011;8078;47.822;9.402;2022-08-18T14:48:44;9.70;;;8.70;;
15958;SDS011;8078;47.822;9.402;2022-08-18T14:51:09;10.35;;;8.77;;
15958;SDS011;8078;47.822;9.402;2022-08-18T14:53:35;11.18;;;8.63;;
15958;SDS011;8078;47.822;9.402;2022-08-18T14:56:01;10.85;;;8.73;;
15958;SDS011;8078;47.822;9.402;2022-08-18T14:58:29;12.48;;;10.20;;
15958;SDS011;8078;47.822;9.402;2022-08-18T15:00:56;10.35;;;8.70;;
15958;SDS011;8078;47.822;9.402;2022-08-18T15:03:23;10.50;;;8.90;;
15958;SDS011;8078;47.822;9.402;2022-08-18T15:05:51;10.48;;;9.35;;
15958;SDS011;8078;47.822;9.402;2022-08-18T15:08:16;10.25;;;9.15;;
15958;SDS011;8078;47.822;9.402;2022-08-18T15:10:43;11.38;;;9.25;;
15958;SDS011;8078;47.822;9.402;2022-08-18T15:13:09;11.20;;;9.68;;
15958;SDS011;8078;47.822;9.402;2022-08-18T15:15:35;13.60;;;9.90;;
15958;SDS011;8078;47.822;9.402;2022-08-18T15:18:01;11.13;;;9.60;;
15958;SDS011;8078;47.822;9.402;2022-08-18T15:20:27;11.80;;;10.60;;
15958;SDS011;8078;47.822;9.402;2022-08-18T15:22:53;12.30;;;9.70;;
15958;SDS011;8078;47.822;9.402;2022-08-18T15:25:37;12.32;;;10.00;;
15958;SDS011;8078;47.822;9.402;2022-08-18T15:28:06;12.07;;;9.77;;
15958;SDS011;8078;47.822;9.402;2022-08-18T15:30:35;12.50;;;10.50;;
15958;SDS011;8078;47.822;9.402;2022-08-18T15:33:01;12.20;;;10.02;;
15958;SDS011;8078;47.822;9.402;2022-08-18T15:35:28;12.02;;;10.10;;
15958;SDS011;8078;47.822;9.402;2022-08-18T15:37:54;12.15;;;10.10;;
15958;SDS011;8078;47.822;9.402;2022-08-18T15:40:21;12.70;;;10.30;;
15958;SDS011;8078;47.822;9.402;2022-08-18T15:42:50;14.32;;;10.60;;
15958;SDS011;8078;47.822;9.402;2022-08-18T15:45:26;13.73;;;12.23;;
15958;SDS011;8078;47.822;9.402;2022-08-18T15:47:56;12.10;;;10.80;;
15958;SDS011;8078;47.822;9.402;2022-08-18T15:50:22;13.82;;;10.88;;
15958;SDS011;8078;47.822;9.402;2022-08-18T15:52:48;14.05;;;11.77;;
15958;SDS011;8078;47.822;9.402;2022-08-18T15:55:28;12.57;;;10.73;;
15958;SDS011;8078;47.822;9.402;2022-08-18T15:57:55;15.82;;;11.50;;
15958;SDS011;8078;47.822;9.402;2022-08-18T16:00:21;16.35;;;12.00;;
15958;SDS011;8078;47.822;9.402;2022-08-18T16:02:53;17.15;;;12.25;;
15958;SDS011;8078;47.822;9.402;2022-08-18T16:05:22;17.70;;;13.00;;
15958;SDS011;8078;47.822;9.402;2022-08-18T16:07:52;16.98;;;13.18;;
15958;SDS011;8078;47.822;9.402;2022-08-18T16:10:20;14.70;;;12.48;;
15958;SDS011;8078;47.822;9.402;2022-08-18T16:12:48;14.73;;;12.95;;
15958;SDS011;8078;47.822;9.402;2022-08-18T16:15:16;16.88;;;13.73;;
15958;SDS011;8078;47.822;9.402;2022-08-18T16:17:43;16.35;;;13.98;;
15958;SDS011;8078;47.822;9.402;2022-08-18T16:20:10;20.08;;;15.02;;
15958;SDS011;8078;47.822;9.402;2022-08-18T16:22:36;18.10;;;14.65;;
15958;SDS011;8078;47.822;9.402;2022-08-18T16:25:05;17.73;;;14.98;;
15958;SDS011;8078;47.822;9.402;2022-08-18T16:27:33;19.77;;;15.50;;
15958;SDS011;8078;47.822;9.402;2022-08-18T16:30:00;18.98;;;15.50;;
15958;SDS011;8078;47.822;9.402;2022-08-18T16:32:28;18.08;;;14.95;;
15958;SDS011;8078;47.822;9.402;2022-08-18T16:34:55;22.35;;;16.95;;
15958;SDS011;8078;47.822;9.402;2022-08-18T16:37:21;19.15;;;16.60;;
15958;SDS011;8078;47.822;9.402;2022-08-18T16:39:46;22.35;;;16.98;;
15958;SDS011;8078;47.822;9.402;2022-08-18T16:42:12;20.77;;;17.25;;
15958;SDS011;8078;47.822;9.402;2022-08-18T16:44:37;21.75;;;17.27;;
15958;SDS011;8078;47.822;9.402;2022-08-18T16:47:03;23.38;;;18.25;;
15958;SDS011;8078;47.822;9.402;2022-08-18T16:49:30;24.88;;;17.95;;
15958;SDS011;8078;47.822;9.402;2022-08-18T16:51:57;29.58;;;20.73;;
15958;SDS011;8078;47.822;9.402;2022-08-18T16:54:26;25.75;;;20.48;;
15958;SDS011;8078;47.822;9.402;2022-08-18T16:56:52;31.50;;;20.67;;
15958;SDS011;8078;47.822;9.402;2022-08-18T16:59:18;24.55;;;19.00;;
15958;SDS011;8078;47.822;9.402;2022-08-18T17:02:03;27.92;;;20.00;;
15958;SDS011;8078;47.822;9.402;2022-08-18T17:04:47;21.08;;;15.43;;
15958;SDS011;8078;47.822;9.402;2022-08-18T17:07:15;22.58;;;16.15;;
15958;SDS011;8078;47.822;9.402;2022-08-18T17:09:41;16.98;;;13.63;;
15958;SDS011;8078;47.822;9.402;2022-08-18T17:12:06;19.48;;;14.73;;
15958;SDS011;8078;47.822;9.402;2022-08-18T17:14:32;20.52;;;13.90;;
15958;SDS011;8078;47.822;9.402;2022-08-18T17:16:59;12.57;;;9.98;;
15958;SDS011;8078;47.822;9.402;2022-08-18T17:19:26;338.55;;;22.75;;
15958;SDS011;8078;47.822;9.402;2022-08-18T17:21:55;834.35;;;53.15;;
15958;SDS011;8078;47.822;9.402;2022-08-18T17:24:21;635.83;;;43.78;;
15958;SDS011;8078;47.822;9.402;2022-08-18T17:29:54;733.95;;;47.80;;
15958;SDS011;8078;47.822;9.402;2022-08-18T17:32:28;641.83;;;37.88;;